KLM47T EHAM-EGFF
Flight info
| Callsign | KLM47T |
|---|---|
| Flight time | 1h 1m |
| Altitude | 34000 |
| Route | IDRID L980 LAM L179 ICTAM |
| Aircraft | E190/M-SDE3GILORVW/S |
Departure
| Time | 2026-04-29 19:16 |
|---|---|
| Airport | Amsterdam Airport Schiphol (EHAM) |
Arrival
| Time | 2026-04-29 20:17 |
|---|---|
| Airport | Cardiff International Airport (EGFF) |
| Time | Latitude | Longitude | Altitude | Speed | Heading |
|---|---|---|---|---|---|
| 2026-04-29 18:46 | 52.30195 | 4.75650 | -2 ft | 0 kts | 238° |
| 2026-04-29 19:00 | 52.30202 | 4.75667 | -2 ft | 4 kts | 229° |
| 2026-04-29 19:00 | 52.30221 | 4.75690 | -2 ft | 4 kts | 185° |
| 2026-04-29 19:01 | 52.30237 | 4.75689 | -2 ft | 4 kts | 152° |
| 2026-04-29 19:04 | 52.30231 | 4.75695 | -2 ft | 4 kts | 148° |
| 2026-04-29 19:04 | 52.30174 | 4.75752 | -2 ft | 13 kts | 148° |
| 2026-04-29 19:04 | 52.30105 | 4.75821 | -2 ft | 6 kts | 149° |
| 2026-04-29 19:05 | 52.30053 | 4.75850 | -2 ft | 10 kts | 189° |
| 2026-04-29 19:05 | 52.29998 | 4.75746 | -2 ft | 14 kts | 237° |
| 2026-04-29 19:05 | 52.29943 | 4.75605 | -2 ft | 16 kts | 237° |
| 2026-04-29 19:05 | 52.29882 | 4.75448 | -2 ft | 17 kts | 238° |
| 2026-04-29 19:06 | 52.29834 | 4.75282 | -2 ft | 16 kts | 264° |
| 2026-04-29 19:06 | 52.29884 | 4.75117 | -2 ft | 17 kts | 311° |
| 2026-04-29 19:06 | 52.30055 | 4.74794 | -1 ft | 20 kts | 312° |
| 2026-04-29 19:07 | 52.30138 | 4.74646 | 9 ft | 15 kts | 311° |
| 2026-04-29 19:07 | 52.30183 | 4.74560 | 9 ft | 15 kts | 312° |
| 2026-04-29 19:07 | 52.30281 | 4.74372 | 8 ft | 18 kts | 309° |
| 2026-04-29 19:07 | 52.30390 | 4.74204 | -2 ft | 21 kts | 340° |
| 2026-04-29 19:08 | 52.30535 | 4.74205 | -2 ft | 21 kts | 4° |
| 2026-04-29 19:08 | 52.30676 | 4.74215 | -2 ft | 20 kts | 4° |
| 2026-04-29 19:08 | 52.30816 | 4.74228 | -2 ft | 20 kts | 2° |
| 2026-04-29 19:08 | 52.30961 | 4.74242 | -2 ft | 21 kts | 5° |
| 2026-04-29 19:09 | 52.31106 | 4.74253 | -2 ft | 20 kts | 6° |
| 2026-04-29 19:09 | 52.31246 | 4.74266 | -2 ft | 20 kts | 4° |
| 2026-04-29 19:09 | 52.31356 | 4.74291 | -2 ft | 13 kts | 25° |
| 2026-04-29 19:09 | 52.31391 | 4.74415 | -2 ft | 13 kts | 83° |
| 2026-04-29 19:10 | 52.31397 | 4.74559 | -2 ft | 12 kts | 85° |
| 2026-04-29 19:10 | 52.31408 | 4.74641 | -2 ft | 3 kts | 56° |
| 2026-04-29 19:10 | 52.31432 | 4.74664 | -2 ft | 6 kts | 19° |
| 2026-04-29 19:10 | 52.31485 | 4.74671 | -2 ft | 9 kts | 356° |
| 2026-04-29 19:11 | 52.31548 | 4.74665 | -2 ft | 10 kts | 356° |
| 2026-04-29 19:11 | 52.31558 | 4.74664 | -2 ft | 0 kts | 356° |
| 2026-04-29 19:13 | 52.31562 | 4.74663 | -2 ft | 3 kts | 356° |
| 2026-04-29 19:13 | 52.31614 | 4.74667 | -2 ft | 12 kts | 12° |
| 2026-04-29 19:13 | 52.31667 | 4.74754 | -2 ft | 9 kts | 82° |
| 2026-04-29 19:14 | 52.31668 | 4.74768 | -2 ft | 0 kts | 86° |
| 2026-04-29 19:15 | 52.31672 | 4.74891 | -4 ft | 38 kts | 86° |
| 2026-04-29 19:16 | 52.31701 | 4.75739 | -3 ft | 109 kts | 86° |
| 2026-04-29 19:16 | 52.31752 | 4.77306 | 117 ft | 158 kts | 84° |
| 2026-04-29 19:16 | 52.31811 | 4.79199 | 851 ft | 173 kts | 84° |
| 2026-04-29 19:16 | 52.32102 | 4.81308 | 1168 ft | 220 kts | 63° |
| 2026-04-29 19:17 | 52.33349 | 4.83182 | 1176 ft | 273 kts | 30° |
| 2026-04-29 19:17 | 52.35214 | 4.83726 | 1285 ft | 267 kts | 360° |
| 2026-04-29 19:17 | 52.37063 | 4.82473 | 1492 ft | 318 kts | 330° |
| 2026-04-29 19:17 | 52.38700 | 4.80138 | 1617 ft | 296 kts | 318° |
| 2026-04-29 19:18 | 52.40009 | 4.77630 | 1995 ft | 286 kts | 314° |
| 2026-04-29 19:18 | 52.40857 | 4.75955 | 2257 ft | 280 kts | 314° |
| 2026-04-29 19:18 | 52.42539 | 4.72860 | 2732 ft | 270 kts | 318° |
| 2026-04-29 19:18 | 52.43800 | 4.70715 | 3257 ft | 254 kts | 319° |
| 2026-04-29 19:19 | 52.45017 | 4.68694 | 3609 ft | 250 kts | 319° |
| 2026-04-29 19:19 | 52.46177 | 4.66549 | 3798 ft | 255 kts | 306° |
| 2026-04-29 19:19 | 52.46766 | 4.63784 | 3902 ft | 263 kts | 276° |
| 2026-04-29 19:19 | 52.46816 | 4.60774 | 4098 ft | 266 kts | 267° |
| 2026-04-29 19:20 | 52.46758 | 4.57732 | 4351 ft | 265 kts | 268° |
| 2026-04-29 19:20 | 52.46566 | 4.54754 | 4642 ft | 261 kts | 251° |
| 2026-04-29 19:20 | 52.45644 | 4.52223 | 4943 ft | 264 kts | 216° |
| 2026-04-29 19:20 | 52.44104 | 4.50491 | 5561 ft | 276 kts | 206° |
| 2026-04-29 19:21 | 52.42458 | 4.48786 | 6341 ft | 287 kts | 216° |
| 2026-04-29 19:21 | 52.41185 | 4.46208 | 7172 ft | 296 kts | 236° |
| 2026-04-29 19:21 | 52.40206 | 4.43224 | 7985 ft | 300 kts | 242° |
| 2026-04-29 19:21 | 52.39273 | 4.40152 | 8774 ft | 303 kts | 242° |
| 2026-04-29 19:22 | 52.38305 | 4.37068 | 9591 ft | 306 kts | 242° |
| 2026-04-29 19:22 | 52.37308 | 4.33960 | 10419 ft | 309 kts | 242° |
| 2026-04-29 19:22 | 52.36273 | 4.30753 | 10815 ft | 330 kts | 242° |
| 2026-04-29 19:22 | 52.35174 | 4.27337 | 11172 ft | 349 kts | 242° |
| 2026-04-29 19:23 | 52.34027 | 4.23767 | 11781 ft | 357 kts | 242° |
| 2026-04-29 19:23 | 52.32864 | 4.20153 | 12549 ft | 361 kts | 242° |
| 2026-04-29 19:23 | 52.31690 | 4.16508 | 13308 ft | 365 kts | 240° |
| 2026-04-29 19:23 | 52.30388 | 4.13291 | 15140 ft | 321 kts | 233° |
| 2026-04-29 19:24 | 52.29087 | 4.10529 | 17044 ft | 286 kts | 231° |
| 2026-04-29 19:24 | 52.27936 | 4.08108 | 18450 ft | 262 kts | 232° |
| 2026-04-29 19:24 | 52.26863 | 4.05807 | 19310 ft | 250 kts | 231° |
| 2026-04-29 19:24 | 52.25810 | 4.03559 | 19804 ft | 250 kts | 231° |
| 2026-04-29 19:25 | 52.24722 | 4.01233 | 19909 ft | 272 kts | 231° |
| 2026-04-29 19:25 | 52.23525 | 3.98673 | 20006 ft | 293 kts | 231° |
| 2026-04-29 19:25 | 52.22249 | 3.95938 | 20227 ft | 313 kts | 231° |
| 2026-04-29 19:25 | 52.20890 | 3.93030 | 20468 ft | 332 kts | 231° |
| 2026-04-29 19:26 | 52.19448 | 3.89949 | 20692 ft | 352 kts | 231° |
| 2026-04-29 19:26 | 52.17922 | 3.86691 | 20882 ft | 371 kts | 231° |
| 2026-04-29 19:26 | 52.16312 | 3.83258 | 21058 ft | 391 kts | 231° |
| 2026-04-29 19:26 | 52.14616 | 3.79651 | 21192 ft | 410 kts | 231° |
| 2026-04-29 19:27 | 52.12869 | 3.75935 | 21705 ft | 416 kts | 231° |
| 2026-04-29 19:27 | 52.11105 | 3.72189 | 22351 ft | 418 kts | 231° |
| 2026-04-29 19:27 | 52.09334 | 3.68436 | 22989 ft | 420 kts | 230° |
| 2026-04-29 19:27 | 52.07544 | 3.64650 | 23542 ft | 424 kts | 230° |
| 2026-04-29 19:28 | 52.05737 | 3.60836 | 24061 ft | 427 kts | 230° |
| 2026-04-29 19:28 | 52.03931 | 3.57025 | 24309 ft | 422 kts | 230° |
| 2026-04-29 19:28 | 52.02133 | 3.53236 | 24312 ft | 426 kts | 230° |
| 2026-04-29 19:28 | 52.00313 | 3.49412 | 24338 ft | 429 kts | 230° |
| 2026-04-29 19:29 | 51.98488 | 3.45580 | 24344 ft | 428 kts | 230° |
| 2026-04-29 19:29 | 51.96678 | 3.41787 | 24858 ft | 423 kts | 230° |
| 2026-04-29 19:29 | 51.94879 | 3.38018 | 25444 ft | 424 kts | 230° |
| 2026-04-29 19:29 | 51.93058 | 3.34216 | 25869 ft | 430 kts | 230° |
| 2026-04-29 19:30 | 51.91214 | 3.30370 | 26285 ft | 435 kts | 230° |
| 2026-04-29 19:30 | 51.89347 | 3.26483 | 26689 ft | 440 kts | 230° |
| 2026-04-29 19:30 | 51.87464 | 3.22563 | 27081 ft | 444 kts | 230° |
| 2026-04-29 19:30 | 51.85626 | 3.18512 | 27443 ft | 450 kts | 238° |
| 2026-04-29 19:31 | 51.84508 | 3.13838 | 27848 ft | 456 kts | 257° |
| 2026-04-29 19:31 | 51.84065 | 3.08748 | 28266 ft | 459 kts | 264° |
| 2026-04-29 19:31 | 51.83824 | 3.03583 | 28628 ft | 462 kts | 265° |
| 2026-04-29 19:31 | 51.83572 | 2.98386 | 29010 ft | 465 kts | 264° |
| 2026-04-29 19:32 | 51.83272 | 2.93166 | 29412 ft | 467 kts | 264° |
| 2026-04-29 19:32 | 51.82945 | 2.87963 | 30017 ft | 464 kts | 263° |
| 2026-04-29 19:32 | 51.82608 | 2.82750 | 30313 ft | 468 kts | 263° |
| 2026-04-29 19:32 | 51.82271 | 2.77522 | 30697 ft | 468 kts | 263° |
| 2026-04-29 19:33 | 51.81935 | 2.72302 | 31144 ft | 466 kts | 263° |
| 2026-04-29 19:33 | 51.81600 | 2.67099 | 31581 ft | 464 kts | 263° |
| 2026-04-29 19:33 | 51.81377 | 2.63666 | 31847 ft | 464 kts | 263° |
| 2026-04-29 19:33 | 51.80901 | 2.56756 | 32333 ft | 463 kts | 263° |
| 2026-04-29 19:34 | 51.80661 | 2.53334 | 32563 ft | 462 kts | 263° |
| 2026-04-29 19:34 | 51.80299 | 2.48180 | 32913 ft | 461 kts | 263° |
| 2026-04-29 19:34 | 51.79936 | 2.43036 | 33258 ft | 460 kts | 263° |
| 2026-04-29 19:34 | 51.79575 | 2.37917 | 33693 ft | 457 kts | 262° |
| 2026-04-29 19:35 | 51.79213 | 2.32834 | 34060 ft | 455 kts | 262° |
| 2026-04-29 19:35 | 51.78850 | 2.27757 | 34250 ft | 457 kts | 262° |
| 2026-04-29 19:35 | 51.78480 | 2.22616 | 34253 ft | 464 kts | 262° |
| 2026-04-29 19:36 | 51.77829 | 2.12178 | 34320 ft | 464 kts | 264° |
| 2026-04-29 19:36 | 51.77246 | 2.01775 | 34318 ft | 468 kts | 263° |
| 2026-04-29 19:37 | 51.76623 | 1.91338 | 34318 ft | 464 kts | 263° |
| 2026-04-29 19:37 | 51.75989 | 1.81001 | 34301 ft | 464 kts | 262° |
| 2026-04-29 19:38 | 51.75343 | 1.70670 | 34304 ft | 462 kts | 262° |
| 2026-04-29 19:38 | 51.74693 | 1.60312 | 34307 ft | 464 kts | 262° |
| 2026-04-29 19:39 | 51.74039 | 1.49963 | 34295 ft | 464 kts | 262° |
| 2026-04-29 19:39 | 51.73373 | 1.39596 | 34299 ft | 464 kts | 262° |
| 2026-04-29 19:40 | 51.72706 | 1.29361 | 34307 ft | 457 kts | 261° |
| 2026-04-29 19:40 | 51.72034 | 1.19208 | 34298 ft | 458 kts | 261° |
| 2026-04-29 19:41 | 51.71350 | 1.09025 | 34307 ft | 457 kts | 261° |
| 2026-04-29 19:41 | 51.70646 | 0.98783 | 34298 ft | 457 kts | 261° |
| 2026-04-29 19:42 | 51.69955 | 0.88755 | 34282 ft | 443 kts | 262° |
| 2026-04-29 19:42 | 51.69260 | 0.78828 | 34298 ft | 445 kts | 263° |
| 2026-04-29 19:43 | 51.68555 | 0.68880 | 34295 ft | 449 kts | 262° |
| 2026-04-29 19:43 | 51.67838 | 0.58943 | 34289 ft | 444 kts | 262° |
| 2026-04-29 19:44 | 51.67127 | 0.49052 | 34299 ft | 444 kts | 262° |
| 2026-04-29 19:44 | 51.66417 | 0.39337 | 34289 ft | 433 kts | 261° |
| 2026-04-29 19:45 | 51.65696 | 0.29714 | 34292 ft | 434 kts | 261° |
| 2026-04-29 19:45 | 51.64970 | 0.20060 | 34292 ft | 435 kts | 261° |
| 2026-04-29 19:46 | 51.64175 | 0.10406 | 34303 ft | 434 kts | 259° |
| 2026-04-29 19:46 | 51.63097 | 0.00854 | 34288 ft | 434 kts | 259° |
| 2026-04-29 19:47 | 51.62063 | -0.08575 | 34379 ft | 423 kts | 256° |
| 2026-04-29 19:47 | 51.61131 | -0.17959 | 34425 ft | 426 kts | 260° |
| 2026-04-29 19:48 | 51.60401 | -0.27408 | 34422 ft | 426 kts | 259° |
| 2026-04-29 19:48 | 51.60145 | -0.30546 | 34267 ft | 428 kts | 260° |
| 2026-04-29 19:48 | 51.59623 | -0.36894 | 34263 ft | 428 kts | 259° |
| 2026-04-29 19:49 | 51.58835 | -0.46324 | 34255 ft | 418 kts | 258° |
| 2026-04-29 19:49 | 51.58052 | -0.55556 | 34277 ft | 417 kts | 259° |
| 2026-04-29 19:50 | 51.57257 | -0.64761 | 34276 ft | 417 kts | 260° |
| 2026-04-29 19:50 | 51.56451 | -0.74059 | 33563 ft | 426 kts | 261° |
| 2026-04-29 19:50 | 51.56039 | -0.78803 | 32035 ft | 430 kts | 258° |
| 2026-04-29 19:51 | 51.55621 | -0.83560 | 30541 ft | 430 kts | 259° |
| 2026-04-29 19:51 | 51.55199 | -0.88366 | 29013 ft | 440 kts | 258° |
| 2026-04-29 19:51 | 51.54769 | -0.93255 | 28718 ft | 447 kts | 258° |
| 2026-04-29 19:51 | 51.54324 | -0.98215 | 28107 ft | 448 kts | 258° |
| 2026-04-29 19:52 | 51.53885 | -1.03076 | 27491 ft | 444 kts | 258° |
| 2026-04-29 19:52 | 51.53440 | -1.08021 | 26926 ft | 440 kts | 259° |
| 2026-04-29 19:52 | 51.53010 | -1.12812 | 26437 ft | 437 kts | 258° |
| 2026-04-29 19:52 | 51.52864 | -1.17749 | 26335 ft | 441 kts | 274° |
| 2026-04-29 19:53 | 51.53318 | -1.22573 | 26103 ft | 450 kts | 279° |
| 2026-04-29 19:53 | 51.53928 | -1.27450 | 26023 ft | 443 kts | 279° |
| 2026-04-29 19:53 | 51.54547 | -1.32287 | 26045 ft | 443 kts | 279° |
| 2026-04-29 19:53 | 51.55142 | -1.37157 | 26062 ft | 442 kts | 278° |
| 2026-04-29 19:54 | 51.56303 | -1.46955 | 26159 ft | 441 kts | 278° |
| 2026-04-29 19:54 | 51.56872 | -1.51760 | 26315 ft | 441 kts | 277° |
| 2026-04-29 19:54 | 51.57434 | -1.56591 | 26310 ft | 438 kts | 278° |
| 2026-04-29 19:55 | 51.57994 | -1.61416 | 26225 ft | 439 kts | 277° |
| 2026-04-29 19:55 | 51.58556 | -1.66281 | 25966 ft | 443 kts | 278° |
| 2026-04-29 19:55 | 51.58996 | -1.71147 | 25751 ft | 439 kts | 273° |
| 2026-04-29 19:55 | 51.59312 | -1.76058 | 25214 ft | 441 kts | 272° |
| 2026-04-29 19:56 | 51.59620 | -1.80932 | 24724 ft | 437 kts | 272° |
| 2026-04-29 19:56 | 51.59948 | -1.85763 | 24278 ft | 432 kts | 274° |
| 2026-04-29 19:56 | 51.60287 | -1.90563 | 23825 ft | 433 kts | 274° |
| 2026-04-29 19:56 | 51.60630 | -1.95365 | 23379 ft | 430 kts | 273° |
| 2026-04-29 19:57 | 51.60969 | -2.00122 | 22942 ft | 425 kts | 273° |
| 2026-04-29 19:57 | 51.61190 | -2.03240 | 22643 ft | 423 kts | 274° |
| 2026-04-29 19:57 | 51.61633 | -2.09526 | 21903 ft | 421 kts | 274° |
| 2026-04-29 19:57 | 51.61957 | -2.14180 | 21356 ft | 417 kts | 273° |
| 2026-04-29 19:58 | 51.62276 | -2.18824 | 20813 ft | 415 kts | 273° |
| 2026-04-29 19:58 | 51.62590 | -2.23418 | 20231 ft | 414 kts | 273° |
| 2026-04-29 19:58 | 51.62713 | -2.27991 | 19800 ft | 404 kts | 262° |
| 2026-04-29 19:58 | 51.62474 | -2.32472 | 19541 ft | 401 kts | 262° |
| 2026-04-29 19:59 | 51.62266 | -2.36950 | 19349 ft | 402 kts | 262° |
| 2026-04-29 19:59 | 51.62068 | -2.41443 | 19142 ft | 402 kts | 262° |
| 2026-04-29 19:59 | 51.61889 | -2.45935 | 18904 ft | 402 kts | 262° |
| 2026-04-29 19:59 | 51.61733 | -2.50428 | 18680 ft | 402 kts | 262° |
| 2026-04-29 20:00 | 51.61582 | -2.54919 | 18416 ft | 402 kts | 262° |
| 2026-04-29 20:00 | 51.61432 | -2.59396 | 18149 ft | 400 kts | 262° |
| 2026-04-29 20:00 | 51.61281 | -2.63859 | 17881 ft | 399 kts | 262° |
| 2026-04-29 20:00 | 51.61126 | -2.68306 | 17617 ft | 398 kts | 262° |
| 2026-04-29 20:01 | 51.60970 | -2.72732 | 17344 ft | 396 kts | 262° |
| 2026-04-29 20:01 | 51.60806 | -2.77149 | 17087 ft | 395 kts | 262° |
| 2026-04-29 20:01 | 51.60641 | -2.81558 | 17020 ft | 394 kts | 262° |
| 2026-04-29 20:01 | 51.60471 | -2.85952 | 16770 ft | 393 kts | 262° |
| 2026-04-29 20:02 | 51.60299 | -2.90342 | 16196 ft | 397 kts | 262° |
| 2026-04-29 20:02 | 51.60120 | -2.94814 | 15151 ft | 403 kts | 262° |
| 2026-04-29 20:02 | 51.59937 | -2.99243 | 14800 ft | 389 kts | 262° |
| 2026-04-29 20:02 | 51.59819 | -3.02078 | 14664 ft | 377 kts | 262° |
| 2026-04-29 20:03 | 51.59601 | -3.07555 | 14335 ft | 358 kts | 262° |
| 2026-04-29 20:03 | 51.59453 | -3.11433 | 14086 ft | 346 kts | 262° |
| 2026-04-29 20:03 | 51.59307 | -3.15288 | 13795 ft | 336 kts | 262° |
| 2026-04-29 20:03 | 51.59167 | -3.19004 | 13340 ft | 330 kts | 262° |
| 2026-04-29 20:04 | 51.59031 | -3.22631 | 12666 ft | 322 kts | 262° |
| 2026-04-29 20:04 | 51.58897 | -3.26210 | 12189 ft | 321 kts | 263° |
| 2026-04-29 20:04 | 51.58763 | -3.29801 | 11716 ft | 321 kts | 263° |
| 2026-04-29 20:04 | 51.58628 | -3.33386 | 11242 ft | 321 kts | 263° |
| 2026-04-29 20:05 | 51.58486 | -3.36961 | 10774 ft | 320 kts | 263° |
| 2026-04-29 20:05 | 51.58345 | -3.40508 | 10324 ft | 316 kts | 263° |
| 2026-04-29 20:05 | 51.58206 | -3.44004 | 9854 ft | 311 kts | 264° |
| 2026-04-29 20:05 | 51.58397 | -3.47499 | 9341 ft | 315 kts | 278° |
| 2026-04-29 20:06 | 51.58801 | -3.50950 | 8850 ft | 314 kts | 279° |
| 2026-04-29 20:06 | 51.59194 | -3.54389 | 8369 ft | 311 kts | 278° |
| 2026-04-29 20:06 | 51.59582 | -3.57814 | 7888 ft | 311 kts | 278° |
| 2026-04-29 20:06 | 51.59969 | -3.61237 | 7421 ft | 310 kts | 278° |
| 2026-04-29 20:07 | 51.60353 | -3.64631 | 6966 ft | 306 kts | 279° |
| 2026-04-29 20:07 | 51.60724 | -3.67951 | 6482 ft | 305 kts | 279° |
| 2026-04-29 20:07 | 51.60976 | -3.71302 | 5981 ft | 299 kts | 265° |
| 2026-04-29 20:07 | 51.60460 | -3.74456 | 5473 ft | 285 kts | 236° |
| 2026-04-29 20:08 | 51.59484 | -3.77131 | 5023 ft | 273 kts | 232° |
| 2026-04-29 20:08 | 51.58829 | -3.78877 | 4679 ft | 268 kts | 232° |
| 2026-04-29 20:08 | 51.57532 | -3.82168 | 4024 ft | 255 kts | 221° |
| 2026-04-29 20:08 | 51.56149 | -3.83618 | 3518 ft | 226 kts | 179° |
| 2026-04-29 20:09 | 51.54773 | -3.83105 | 3013 ft | 195 kts | 129° |
| 2026-04-29 20:09 | 51.54363 | -3.81277 | 2964 ft | 171 kts | 82° |
| 2026-04-29 20:09 | 51.54649 | -3.79413 | 3586 ft | 176 kts | 83° |
| 2026-04-29 20:09 | 51.54388 | -3.77438 | 3319 ft | 196 kts | 121° |
| 2026-04-29 20:10 | 51.53233 | -3.76135 | 2944 ft | 198 kts | 146° |
| 2026-04-29 20:10 | 51.52217 | -3.74862 | 3146 ft | 186 kts | 115° |
| 2026-04-29 20:10 | 51.51707 | -3.72986 | 3193 ft | 186 kts | 108° |
| 2026-04-29 20:10 | 51.51151 | -3.71115 | 3337 ft | 184 kts | 114° |
| 2026-04-29 20:11 | 51.50566 | -3.69390 | 3387 ft | 168 kts | 112° |
| 2026-04-29 20:11 | 51.50068 | -3.67701 | 2952 ft | 172 kts | 110° |
| 2026-04-29 20:11 | 51.49536 | -3.65995 | 2848 ft | 160 kts | 110° |
| 2026-04-29 20:11 | 51.49053 | -3.64456 | 2939 ft | 153 kts | 110° |
| 2026-04-29 20:12 | 51.48588 | -3.62942 | 2989 ft | 150 kts | 110° |
| 2026-04-29 20:12 | 51.48121 | -3.61426 | 3003 ft | 153 kts | 110° |
| 2026-04-29 20:12 | 51.47643 | -3.59903 | 3020 ft | 152 kts | 110° |
| 2026-04-29 20:12 | 51.47169 | -3.58377 | 3047 ft | 155 kts | 111° |
| 2026-04-29 20:13 | 51.46699 | -3.56858 | 3126 ft | 143 kts | 111° |
| 2026-04-29 20:13 | 51.46412 | -3.55940 | 3055 ft | 136 kts | 110° |
| 2026-04-29 20:13 | 51.45867 | -3.54197 | 2795 ft | 125 kts | 109° |
| 2026-04-29 20:13 | 51.45490 | -3.52976 | 2630 ft | 121 kts | 108° |
| 2026-04-29 20:14 | 51.45114 | -3.51767 | 2467 ft | 121 kts | 110° |
| 2026-04-29 20:14 | 51.44734 | -3.50559 | 2315 ft | 122 kts | 110° |
| 2026-04-29 20:14 | 51.44359 | -3.49348 | 2150 ft | 123 kts | 109° |
| 2026-04-29 20:14 | 51.43971 | -3.48109 | 2003 ft | 124 kts | 109° |
| 2026-04-29 20:15 | 51.43589 | -3.46887 | 1799 ft | 118 kts | 108° |
| 2026-04-29 20:15 | 51.43234 | -3.45746 | 1661 ft | 114 kts | 109° |
| 2026-04-29 20:15 | 51.42863 | -3.44558 | 1516 ft | 125 kts | 108° |
| 2026-04-29 20:15 | 51.42469 | -3.43297 | 1325 ft | 126 kts | 109° |
| 2026-04-29 20:16 | 51.42074 | -3.42037 | 1155 ft | 123 kts | 110° |
| 2026-04-29 20:16 | 51.41692 | -3.40825 | 948 ft | 129 kts | 108° |
| 2026-04-29 20:16 | 51.41281 | -3.39512 | 792 ft | 130 kts | 110° |
| 2026-04-29 20:16 | 51.40874 | -3.38208 | 619 ft | 138 kts | 110° |
| 2026-04-29 20:17 | 51.40464 | -3.36884 | 457 ft | 130 kts | 108° |
| 2026-04-29 20:17 | 51.40055 | -3.35600 | 238 ft | 125 kts | 108° |
| 2026-04-29 20:17 | 51.39719 | -3.34511 | 221 ft | 88 kts | 116° |
| 2026-04-29 20:17 | 51.39516 | -3.33868 | 222 ft | 42 kts | 116° |
| 2026-04-29 20:18 | 51.39409 | -3.33533 | 222 ft | 28 kts | 116° |
| 2026-04-29 20:18 | 51.39332 | -3.33289 | 222 ft | 22 kts | 116° |
| 2026-04-29 20:18 | 51.39309 | -3.33117 | 221 ft | 11 kts | 46° |
| 2026-04-29 20:18 | 51.39378 | -3.33049 | 222 ft | 12 kts | 26° |
| 2026-04-29 20:19 | 51.39453 | -3.33100 | 222 ft | 16 kts | 306° |
| 2026-04-29 20:19 | 51.39513 | -3.33275 | 223 ft | 19 kts | 297° |
| 2026-04-29 20:19 | 51.39574 | -3.33470 | 222 ft | 20 kts | 297° |
| 2026-04-29 20:19 | 51.39643 | -3.33686 | 221 ft | 23 kts | 296° |
| 2026-04-29 20:20 | 51.39688 | -3.33825 | 221 ft | 18 kts | 297° |
| 2026-04-29 20:20 | 51.39726 | -3.33952 | 220 ft | 10 kts | 295° |
| 2026-04-29 20:20 | 51.39757 | -3.33932 | 220 ft | 6 kts | 75° |
| 2026-04-29 20:20 | 51.39764 | -3.33862 | 220 ft | 7 kts | 81° |
| 2026-04-29 20:21 | 51.39765 | -3.33844 | 221 ft | 0 kts | 81° |